Terminal Aerodrome Forecast
Issued by NWS Wakefield, VA

Home | Current Version | Previous Version | Text Only | Print | Product List | Glossary On
Versions: 1 2 3 4 5 6 7 8 9 10 11 12 13 14 15 16 17
338
FTUS41 KAKQ 110520
TAFRIC
TAF
KRIC 110520Z 1106/1206 VRB03KT P6SM BKN150
     FM111500 15006KT P6SM BKN200
     FM120000 18006KT P6SM SCT040 OVC070=

USA.gov is the U.S. government's official web portal to all federal, state and local government web resources and services.